Impacts METAR Board
IDs:

KBOS - Boston/Logan Intl, MA, US

Updated at: 1900 UTC 02 Oct 2022
Potential Impact None Slight Moderate High
Time 02/07Z 02/08Z 02/09Z 02/10Z 02/11Z 02/12Z 02/13Z 02/14Z 02/15Z 02/16Z 02/17Z 02/18Z 02/19Z
Temp58 58 57 57 56 55 55 54 54 54 55 55 55
Dewpt52 52 50 48 47 45 43 42 40 39 37 38 39
Altim30.09 30.10 30.11 30.12 30.14 30.16 30.19 30.20 30.22 30.23 30.23 30.23 30.23
VIS10 10 10 10 10 10 10 10 10 10 10 10 10
CIG65 70 20 24 27 27 35 38 48 50 120 140 140
CoverOVCOVCOVCOVCOVCOVCBKNBKNBKNBKNOVCBKNBKN
FltCatVFRVFRMVFRMVFRMVFRMVFRVFRVFRVFRVFRVFRVFRVFR
WX--------------------------
WDir10304040504050405030304030
WSpd11 16 22 20 24 25 23 24 25 21 24 22 24
WGst-- -- 29 30 29 34 30 36 32 28 30 29 29
Raw hourly METARs
KBOS 020654Z 01011KT 10SM OVC065 14/11 A3009 RMK AO2 SLP187 T01440111
KBOS 020754Z 03016KT 10SM FEW018 OVC070 14/11 A3010 RMK AO2 SLP193 T01440111
KBOS 020854Z 04022G29KT 10SM BKN020 OVC070 14/10 A3011 RMK AO2 PK WND 04029/0854 SLP195 T01390100 51017
KBOS 020954Z 04020G30KT 10SM BKN024 OVC140 14/09 A3012 RMK AO2 PK WND 04030/0948 SLP199 T01390089
KBOS 021054Z 05024G29KT 10SM OVC027 13/08 A3014 RMK AO2 PK WND 05035/1039 SLP204 T01330083
KBOS 021154Z 04025G34KT 10SM BKN027 OVC100 13/07 A3016 RMK AO2 PK WND 03034/1150 SLP213 70002 T01280072 10144 20128 53017
KBOS 021254Z 05023G30KT 10SM BKN035 BKN100 13/06 A3019 RMK AO2 PK WND 04036/1237 SLP221 T01280061
KBOS 021354Z 04024G36KT 10SM FEW030 BKN038 BKN120 12/06 A3020 RMK AO2 PK WND 03036/1348 SLP226 T01220056
KBOS 021454Z 05025G32KT 10SM FEW030 BKN048 BKN100 12/04 A3022 RMK AO2 PK WND 03034/1426 SLP233 T01220044 51020
KBOS 021554Z 03021G28KT 10SM FEW032 BKN050 BKN120 12/04 A3023 RMK AO2 PK WND 03032/1520 SLP234 T01220039
KBOS 021654Z 03024G30KT 10SM FEW050 BKN120 OVC140 13/03 A3023 RMK AO2 PK WND 04031/1609 SLP237 T01280028
KBOS 021754Z 04022G29KT 10SM FEW047 BKN140 BKN250 13/03 A3023 RMK AO2 PK WND 02030/1722 SLP235 T01280033 10133 20122 50002
KBOS 021854Z 03024G29KT 10SM FEW045 BKN140 BKN250 13/04 A3023 RMK AO2 PK WND 03034/1801 SLP237 T01280039



Page loaded:  19:56 UTC  |   12:56 PM Pacific  |   01:56 PM Mountain  |   02:56 PM Central  |   03:56 PM Eastern

 

ADVISORIES

FORECASTS

FORECASTS

OBSERVATIONS

USER TOOLS

ABOUT US